Карточка аэропорта UAKK

Внимание!
Информация на этой странице в стадии наполнения.
Если вы не увидели какой-то информации, или заметили неточность - пожалуйста сообщите нам!
Спасибо!
Команда RU-STAFF
Название аэропортаКараганда
Название аэропорта (англ.)Karaganda
Превышение1768 ft. (538.9 m.)
Координаты49°40.302', 73°20.118'
Высота перехода10000ft
Эшелон переходаFL120, QNH<733:FL130
Коды ответчика0630-0637, 7220-7227
Зона ОрВДАстана РПИ (UACN)
Данные METARUAKK 150700Z 11004MPS 080V160 CAVOK 28/18 Q1005 NOSIG RMK QFE707/0942
Проноз погоды (TAF)UAKK 150500Z 1506/1606 12008MPS 9999 SCT030CB BKN100 TX30/1509Z TN16/1524Z TEMPO 1506/1512 19008G13MPS 3100 -TSRA BKN020CB TEMPO 1512/1518 VRB17MPS 1000 TSRA SQ SCT015 BKN030CB BECMG 1518/1520 17005MPS SCT040 BKN100 TEMPO 1518/1602 5000 BR BKN011
NOTAMshow/hide NOTAM
AWOS   TABLE

Информация о ВПП

ВПП Длина ВПП (м.) Покрытие Курс ВПП Частота ILS
053601Железобетон50109.9
233601Железобетон230111.7

Диспетчерские позиции




Спутниковое изображение